sensor_id;sensor_type;location;lat;lon;timestamp;pressure;altitude;pressure_sealevel;temperature;humidity
84108;BME280;74203;50.730;1.626;2024-03-25T00:00:49;99783.31;;;18.43;61.01
84108;BME280;74203;50.730;1.626;2024-03-25T00:02:56;99785.47;;;18.41;60.86
84108;BME280;74203;50.730;1.626;2024-03-25T00:05:04;99787.09;;;18.42;61.04
84108;BME280;74203;50.730;1.626;2024-03-25T00:07:11;99783.84;;;18.40;60.87
84108;BME280;74203;50.730;1.626;2024-03-25T00:09:19;99785.22;;;18.38;60.74
84108;BME280;74203;50.730;1.626;2024-03-25T00:11:26;99777.81;;;18.33;60.75
84108;BME280;74203;50.730;1.626;2024-03-25T00:13:34;99780.84;;;18.32;60.77
84108;BME280;74203;50.730;1.626;2024-03-25T00:15:41;99780.84;;;18.32;60.83
84108;BME280;74203;50.730;1.626;2024-03-25T00:17:50;99781.13;;;18.30;60.78
84108;BME280;74203;50.730;1.626;2024-03-25T00:19:57;99776.75;;;18.29;60.50
84108;BME280;74203;50.730;1.626;2024-03-25T00:22:05;99782.75;;;18.26;60.44
84108;BME280;74203;50.730;1.626;2024-03-25T00:24:12;99775.66;;;18.25;60.21
84108;BME280;74203;50.730;1.626;2024-03-25T00:26:19;99773.19;;;18.23;60.27
84108;BME280;74203;50.730;1.626;2024-03-25T00:28:27;99771.56;;;18.22;60.26
84108;BME280;74203;50.730;1.626;2024-03-25T00:30:34;99774.53;;;18.21;60.06
84108;BME280;74203;50.730;1.626;2024-03-25T00:32:41;99758.69;;;18.18;60.13
84108;BME280;74203;50.730;1.626;2024-03-25T00:34:49;99758.97;;;18.16;59.85
84108;BME280;74203;50.730;1.626;2024-03-25T00:36:56;99755.44;;;18.16;59.86
84108;BME280;74203;50.730;1.626;2024-03-25T00:39:03;99754.59;;;18.15;59.56
84108;BME280;74203;50.730;1.626;2024-03-25T00:41:11;99755.97;;;18.13;59.41
84108;BME280;74203;50.730;1.626;2024-03-25T00:43:18;99750.25;;;18.09;59.16
84108;BME280;74203;50.730;1.626;2024-03-25T00:45:26;99744.50;;;18.06;59.04
84108;BME280;74203;50.730;1.626;2024-03-25T00:47:33;99743.38;;;18.01;59.07
84108;BME280;74203;50.730;1.626;2024-03-25T00:49:41;99745.56;;;17.99;59.06
84108;BME280;74203;50.730;1.626;2024-03-25T00:51:48;99747.75;;;17.97;59.16
84108;BME280;74203;50.730;1.626;2024-03-25T00:53:55;99742.84;;;17.94;58.92
84108;BME280;74203;50.730;1.626;2024-03-25T00:56:03;99739.56;;;17.92;58.87
84108;BME280;74203;50.730;1.626;2024-03-25T00:58:10;99739.84;;;17.91;59.10
84108;BME280;74203;50.730;1.626;2024-03-25T01:00:18;99731.94;;;17.89;59.07
84108;BME280;74203;50.730;1.626;2024-03-25T01:02:26;99729.19;;;17.89;59.06
84108;BME280;74203;50.730;1.626;2024-03-25T01:04:33;99721.53;;;17.86;58.76
84108;BME280;74203;50.730;1.626;2024-03-25T01:06:40;99727.53;;;17.83;58.91
84108;BME280;74203;50.730;1.626;2024-03-25T01:08:48;99724.81;;;17.83;58.78
84108;BME280;74203;50.730;1.626;2024-03-25T01:10:55;99719.87;;;17.80;58.89
84108;BME280;74203;50.730;1.626;2024-03-25T01:13:03;99716.63;;;17.78;58.71
84108;BME280;74203;50.730;1.626;2024-03-25T01:15:11;99713.06;;;17.78;58.86
84108;BME280;74203;50.730;1.626;2024-03-25T01:17:18;99706.25;;;17.75;58.79
84108;BME280;74203;50.730;1.626;2024-03-25T01:19:26;99710.31;;;17.72;58.75
84108;BME280;74203;50.730;1.626;2024-03-25T01:21:33;99705.13;;;17.71;58.93
84108;BME280;74203;50.730;1.626;2024-03-25T01:23:40;99701.84;;;17.69;58.86
84108;BME280;74203;50.730;1.626;2024-03-25T01:25:48;99699.34;;;17.67;58.77
84108;BME280;74203;50.730;1.626;2024-03-25T01:27:55;99691.44;;;17.66;58.83
84108;BME280;74203;50.730;1.626;2024-03-25T01:30:03;99693.63;;;17.64;58.81
84108;BME280;74203;50.730;1.626;2024-03-25T01:32:10;99702.91;;;17.63;58.76
84108;BME280;74203;50.730;1.626;2024-03-25T01:34:18;99701.28;;;17.62;58.86
84108;BME280;74203;50.730;1.626;2024-03-25T01:36:25;99686.25;;;17.59;58.87
84108;BME280;74203;50.730;1.626;2024-03-25T01:38:32;99687.63;;;17.57;58.81
84108;BME280;74203;50.730;1.626;2024-03-25T01:40:40;99691.44;;;17.56;58.83
84108;BME280;74203;50.730;1.626;2024-03-25T01:42:57;99683.50;;;17.54;58.92
84108;BME280;74203;50.730;1.626;2024-03-25T01:45:05;99683.50;;;17.54;58.80
84108;BME280;74203;50.730;1.626;2024-03-25T01:47:13;99677.22;;;17.54;58.90
84108;BME280;74203;50.730;1.626;2024-03-25T01:49:21;99675.59;;;17.53;58.85
84108;BME280;74203;50.730;1.626;2024-03-25T01:51:29;99668.78;;;17.50;58.67
84108;BME280;74203;50.730;1.626;2024-03-25T01:53:37;99670.69;;;17.50;58.81
84108;BME280;74203;50.730;1.626;2024-03-25T01:55:45;99674.50;;;17.49;58.78
84108;BME280;74203;50.730;1.626;2024-03-25T01:57:53;99664.66;;;17.47;58.93
84108;BME280;74203;50.730;1.626;2024-03-25T02:00:01;99660.31;;;17.46;58.86
84108;BME280;74203;50.730;1.626;2024-03-25T02:02:09;99658.66;;;17.45;58.73
84108;BME280;74203;50.730;1.626;2024-03-25T02:04:18;99655.94;;;17.45;58.77
84108;BME280;74203;50.730;1.626;2024-03-25T02:06:29;99661.41;;;17.45;58.85
84108;BME280;74203;50.730;1.626;2024-03-25T02:08:38;99657.03;;;17.44;58.62
84108;BME280;74203;50.730;1.626;2024-03-25T02:10:47;99653.75;;;17.42;58.89
84108;BME280;74203;50.730;1.626;2024-03-25T02:12:54;99650.47;;;17.40;58.73
84108;BME280;74203;50.730;1.626;2024-03-25T02:15:02;99648.84;;;17.39;58.67
84108;BME280;74203;50.730;1.626;2024-03-25T02:17:10;99641.47;;;17.40;58.77
84108;BME280;74203;50.730;1.626;2024-03-25T02:19:18;99646.66;;;17.41;58.69
84108;BME280;74203;50.730;1.626;2024-03-25T02:21:26;99652.66;;;17.38;58.69
84108;BME280;74203;50.730;1.626;2024-03-25T02:23:35;99647.19;;;17.38;58.82
84108;BME280;74203;50.730;1.626;2024-03-25T02:27:52;99642.84;;;17.37;58.59
84108;BME280;74203;50.730;1.626;2024-03-25T02:30:04;99640.09;;;17.37;58.61
84108;BME280;74203;50.730;1.626;2024-03-25T02:32:12;99645.56;;;17.37;58.61
84108;BME280;74203;50.730;1.626;2024-03-25T02:34:20;99636.84;;;17.35;58.66
84108;BME280;74203;50.730;1.626;2024-03-25T02:36:27;99636.84;;;17.35;58.63
84108;BME280;74203;50.730;1.626;2024-03-25T02:38:35;99620.47;;;17.35;58.65
84108;BME280;74203;50.730;1.626;2024-03-25T02:40:43;99619.66;;;17.35;58.58
84108;BME280;74203;50.730;1.626;2024-03-25T02:42:50;99612.53;;;17.34;58.66
84108;BME280;74203;50.730;1.626;2024-03-25T02:44:58;99617.97;;;17.34;58.59
84108;BME280;74203;50.730;1.626;2024-03-25T02:47:07;99617.97;;;17.34;58.53
84108;BME280;74203;50.730;1.626;2024-03-25T02:49:15;99616.09;;;17.34;58.62
84108;BME280;74203;50.730;1.626;2024-03-25T02:51:22;99612.81;;;17.32;58.58
84108;BME280;74203;50.730;1.626;2024-03-25T02:53:29;99611.72;;;17.33;58.39
84108;BME280;74203;50.730;1.626;2024-03-25T02:55:37;99615.53;;;17.32;58.48
84108;BME280;74203;50.730;1.626;2024-03-25T02:57:44;99606.81;;;17.30;58.45
84108;BME280;74203;50.730;1.626;2024-03-25T02:59:51;99606.81;;;17.30;58.56
84108;BME280;74203;50.730;1.626;2024-03-25T03:01:58;99599.72;;;17.29;58.54
84108;BME280;74203;50.730;1.626;2024-03-25T03:04:06;99594.00;;;17.31;58.39
84108;BME280;74203;50.730;1.626;2024-03-25T03:06:13;99595.09;;;17.30;58.38
84108;BME280;74203;50.730;1.626;2024-03-25T03:08:21;99592.62;;;17.28;58.31
84108;BME280;74203;50.730;1.626;2024-03-25T03:10:28;99600.25;;;17.26;58.47
84108;BME280;74203;50.730;1.626;2024-03-25T03:12:35;99600.81;;;17.28;58.53
84108;BME280;74203;50.730;1.626;2024-03-25T03:14:42;99594.78;;;17.26;58.41
84108;BME280;74203;50.730;1.626;2024-03-25T03:16:50;99598.63;;;17.25;58.41
84108;BME280;74203;50.730;1.626;2024-03-25T03:18:58;99589.59;;;17.25;58.49
84108;BME280;74203;50.730;1.626;2024-03-25T03:21:05;99584.44;;;17.23;58.54
84108;BME280;74203;50.730;1.626;2024-03-25T03:23:12;99587.16;;;17.23;58.38
84108;BME280;74203;50.730;1.626;2024-03-25T03:25:20;99582.81;;;17.22;58.49
84108;BME280;74203;50.730;1.626;2024-03-25T03:27:27;99571.31;;;17.20;58.43
84108;BME280;74203;50.730;1.626;2024-03-25T03:29:34;99575.72;;;17.21;58.29
84108;BME280;74203;50.730;1.626;2024-03-25T03:31:41;99568.59;;;17.20;58.45
84108;BME280;74203;50.730;1.626;2024-03-25T03:33:49;99571.31;;;17.20;58.31
84108;BME280;74203;50.730;1.626;2024-03-25T03:35:57;99566.16;;;17.18;58.35
84108;BME280;74203;50.730;1.626;2024-03-25T03:38:05;99562.59;;;17.18;58.50
84108;BME280;74203;50.730;1.626;2024-03-25T03:40:14;99568.06;;;17.18;58.38
84108;BME280;74203;50.730;1.626;2024-03-25T03:42:21;99556.34;;;17.17;58.41
84108;BME280;74203;50.730;1.626;2024-03-25T03:44:28;99551.97;;;17.16;58.47
84108;BME280;74203;50.730;1.626;2024-03-25T03:46:36;99545.69;;;17.16;58.38
84108;BME280;74203;50.730;1.626;2024-03-25T03:48:43;99544.06;;;17.15;58.44
84108;BME280;74203;50.730;1.626;2024-03-25T03:50:50;99549.53;;;17.15;58.42
84108;BME280;74203;50.730;1.626;2024-03-25T03:52:57;99538.63;;;17.15;58.38
84108;BME280;74203;50.730;1.626;2024-03-25T03:55:05;99534.25;;;17.14;58.24
84108;BME280;74203;50.730;1.626;2024-03-25T03:57:13;99539.13;;;17.12;58.26
84108;BME280;74203;50.730;1.626;2024-03-25T03:59:20;99530.41;;;17.10;58.39
84108;BME280;74203;50.730;1.626;2024-03-25T04:01:27;99538.31;;;17.11;58.50
84108;BME280;74203;50.730;1.626;2024-03-25T04:03:35;99534.25;;;17.09;58.33
84108;BME280;74203;50.730;1.626;2024-03-25T04:05:42;99530.94;;;17.07;58.60
84108;BME280;74203;50.730;1.626;2024-03-25T04:07:49;99528.50;;;17.05;58.34
84108;BME280;74203;50.730;1.626;2024-03-25T04:09:57;99529.31;;;17.06;58.39
84108;BME280;74203;50.730;1.626;2024-03-25T04:12:05;99531.50;;;17.04;58.43
84108;BME280;74203;50.730;1.626;2024-03-25T04:14:13;99530.69;;;17.03;58.49
84108;BME280;74203;50.730;1.626;2024-03-25T04:16:20;99531.78;;;17.02;58.40
84108;BME280;74203;50.730;1.626;2024-03-25T04:18:27;99528.22;;;17.02;58.41
84108;BME280;74203;50.730;1.626;2024-03-25T04:20:38;99528.22;;;17.02;58.64
84108;BME280;74203;50.730;1.626;2024-03-25T04:22:46;99517.84;;;16.99;58.54
84108;BME280;74203;50.730;1.626;2024-03-25T04:24:54;99521.66;;;16.98;58.40
84108;BME280;74203;50.730;1.626;2024-03-25T04:27:01;99532.56;;;16.98;58.68
84108;BME280;74203;50.730;1.626;2024-03-25T04:29:09;99520.03;;;16.97;58.50
84108;BME280;74203;50.730;1.626;2024-03-25T04:31:16;99513.75;;;16.96;58.49
84108;BME280;74203;50.730;1.626;2024-03-25T04:33:24;99523.84;;;16.96;58.57
84108;BME280;74203;50.730;1.626;2024-03-25T04:35:31;99513.75;;;16.96;58.59
84108;BME280;74203;50.730;1.626;2024-03-25T04:37:38;99512.41;;;16.94;58.56
84108;BME280;74203;50.730;1.626;2024-03-25T04:39:45;99510.50;;;16.94;58.46
84108;BME280;74203;50.730;1.626;2024-03-25T04:41:53;99506.97;;;16.94;58.44
84108;BME280;74203;50.730;1.626;2024-03-25T04:44:00;99504.47;;;16.92;58.69
84108;BME280;74203;50.730;1.626;2024-03-25T04:46:08;99499.31;;;16.90;58.63
84108;BME280;74203;50.730;1.626;2024-03-25T04:48:15;99505.03;;;16.89;58.60
84108;BME280;74203;50.730;1.626;2024-03-25T04:50:23;99499.84;;;16.87;58.61
84108;BME280;74203;50.730;1.626;2024-03-25T04:52:30;99498.75;;;16.88;58.71
84108;BME280;74203;50.730;1.626;2024-03-25T04:54:38;99498.19;;;16.86;58.72
84108;BME280;74203;50.730;1.626;2024-03-25T04:56:45;99495.75;;;16.85;58.66
84108;BME280;74203;50.730;1.626;2024-03-25T04:58:52;99502.00;;;16.85;58.61
84108;BME280;74203;50.730;1.626;2024-03-25T05:00:59;99494.94;;;16.84;58.51
84108;BME280;74203;50.730;1.626;2024-03-25T05:03:07;99489.47;;;16.84;58.69
84108;BME280;74203;50.730;1.626;2024-03-25T05:05:15;99483.22;;;16.84;58.68
84108;BME280;74203;50.730;1.626;2024-03-25T05:07:22;99485.41;;;16.82;58.55
84108;BME280;74203;50.730;1.626;2024-03-25T05:09:29;99472.03;;;16.80;58.63
84108;BME280;74203;50.730;1.626;2024-03-25T05:11:37;99475.84;;;16.79;58.55
84108;BME280;74203;50.730;1.626;2024-03-25T05:13:44;99474.19;;;16.78;58.66
84108;BME280;74203;50.730;1.626;2024-03-25T05:15:55;99473.94;;;16.80;58.84
84108;BME280;74203;50.730;1.626;2024-03-25T05:18:02;99472.56;;;16.77;58.82
84108;BME280;74203;50.730;1.626;2024-03-25T05:20:11;99472.03;;;16.75;58.63
84108;BME280;74203;50.730;1.626;2024-03-25T05:22:19;99470.94;;;16.76;58.74
84108;BME280;74203;50.730;1.626;2024-03-25T05:24:26;99467.69;;;16.74;58.74
84108;BME280;74203;50.730;1.626;2024-03-25T05:26:33;99468.78;;;16.73;58.83
84108;BME280;74203;50.730;1.626;2024-03-25T05:28:40;99465.22;;;16.78;58.92
84108;BME280;74203;50.730;1.626;2024-03-25T05:30:48;99459.50;;;16.95;58.93
84108;BME280;74203;50.730;1.626;2024-03-25T05:32:55;99459.78;;;17.13;58.47
84108;BME280;74203;50.730;1.626;2024-03-25T05:35:02;99458.38;;;17.46;57.88
84108;BME280;74203;50.730;1.626;2024-03-25T05:37:10;99460.78;;;17.84;56.87
84108;BME280;74203;50.730;1.626;2024-03-25T05:39:17;99457.91;;;18.24;55.62
84108;BME280;74203;50.730;1.626;2024-03-25T05:41:25;99452.25;;;18.55;54.74
84108;BME280;74203;50.730;1.626;2024-03-25T05:43:32;99447.44;;;18.86;53.74
84108;BME280;74203;50.730;1.626;2024-03-25T05:45:39;99447.16;;;19.22;53.16
84108;BME280;74203;50.730;1.626;2024-03-25T05:47:47;99448.47;;;19.58;52.04
84108;BME280;74203;50.730;1.626;2024-03-25T05:49:54;99445.09;;;19.90;51.03
84108;BME280;74203;50.730;1.626;2024-03-25T05:52:01;99441.75;;;20.17;50.62
84108;BME280;74203;50.730;1.626;2024-03-25T05:54:09;99445.50;;;20.45;49.54
84108;BME280;74203;50.730;1.626;2024-03-25T05:56:16;99444.84;;;20.72;48.91
84108;BME280;74203;50.730;1.626;2024-03-25T05:58:23;99440.31;;;21.01;48.48
84108;BME280;74203;50.730;1.626;2024-03-25T06:00:31;99444.50;;;21.31;47.69
84108;BME280;74203;50.730;1.626;2024-03-25T06:02:38;99443.41;;;21.59;46.76
84108;BME280;74203;50.730;1.626;2024-03-25T06:04:45;99450.06;;;21.86;46.30
84108;BME280;74203;50.730;1.626;2024-03-25T06:06:52;99447.94;;;22.10;45.85
84108;BME280;74203;50.730;1.626;2024-03-25T06:09:00;99445.28;;;22.32;45.17
84108;BME280;74203;50.730;1.626;2024-03-25T06:11:07;99448.06;;;22.55;44.64
84108;BME280;74203;50.730;1.626;2024-03-25T06:13:15;99448.72;;;22.74;44.21
84108;BME280;74203;50.730;1.626;2024-03-25T06:15:22;99442.59;;;22.91;43.98
84108;BME280;74203;50.730;1.626;2024-03-25T06:17:29;99438.81;;;23.09;43.54
84108;BME280;74203;50.730;1.626;2024-03-25T06:19:36;99437.94;;;23.23;43.01
84108;BME280;74203;50.730;1.626;2024-03-25T06:21:44;99436.22;;;23.35;42.82
84108;BME280;74203;50.730;1.626;2024-03-25T06:23:51;99426.38;;;23.43;42.34
84108;BME280;74203;50.730;1.626;2024-03-25T06:25:59;99419.31;;;23.51;42.25
84108;BME280;74203;50.730;1.626;2024-03-25T06:28:07;99409.75;;;23.57;42.24
84108;BME280;74203;50.730;1.626;2024-03-25T06:30:15;99417.13;;;23.61;42.16
84108;BME280;74203;50.730;1.626;2024-03-25T06:32:23;99415.66;;;23.64;42.08
84108;BME280;74203;50.730;1.626;2024-03-25T06:34:30;99428.34;;;23.65;41.85
84108;BME280;74203;50.730;1.626;2024-03-25T06:36:37;99423.44;;;23.62;42.03
84108;BME280;74203;50.730;1.626;2024-03-25T06:38:45;99433.84;;;23.65;41.85
84108;BME280;74203;50.730;1.626;2024-03-25T06:40:52;99428.34;;;23.65;42.03
84108;BME280;74203;50.730;1.626;2024-03-25T06:43:00;99428.34;;;23.65;41.73
84108;BME280;74203;50.730;1.626;2024-03-25T06:45:08;99427.81;;;23.63;41.78
84108;BME280;74203;50.730;1.626;2024-03-25T06:47:16;99422.91;;;23.60;42.01
84108;BME280;74203;50.730;1.626;2024-03-25T06:49:23;99423.06;;;23.55;41.99
84108;BME280;74203;50.730;1.626;2024-03-25T06:51:30;99429.50;;;23.50;41.97
84108;BME280;74203;50.730;1.626;2024-03-25T06:53:38;99430.47;;;23.46;42.02
84108;BME280;74203;50.730;1.626;2024-03-25T06:55:53;99432.34;;;23.36;42.39
84108;BME280;74203;50.730;1.626;2024-03-25T06:58:01;99425.97;;;23.27;42.58
84108;BME280;74203;50.730;1.626;2024-03-25T07:00:10;99434.09;;;23.24;42.53
84108;BME280;74203;50.730;1.626;2024-03-25T07:02:18;99437.56;;;23.15;42.60
84108;BME280;74203;50.730;1.626;2024-03-25T07:04:25;99432.50;;;23.09;42.86
84108;BME280;74203;50.730;1.626;2024-03-25T07:06:32;99431.16;;;22.98;43.11
84108;BME280;74203;50.730;1.626;2024-03-25T07:08:39;99428.19;;;22.94;43.13
84108;BME280;74203;50.730;1.626;2024-03-25T07:10:47;99419.34;;;22.83;43.32
84108;BME280;74203;50.730;1.626;2024-03-25T07:12:55;99421.22;;;22.74;43.27
84108;BME280;74203;50.730;1.626;2024-03-25T07:15:02;99417.75;;;22.69;43.61
84108;BME280;74203;50.730;1.626;2024-03-25T07:17:10;99412.19;;;22.60;43.50
84108;BME280;74203;50.730;1.626;2024-03-25T07:19:17;99412.94;;;22.52;43.68
84108;BME280;74203;50.730;1.626;2024-03-25T07:21:24;99408.69;;;22.46;43.89
84108;BME280;74203;50.730;1.626;2024-03-25T07:23:31;99407.47;;;22.38;43.89
84108;BME280;74203;50.730;1.626;2024-03-25T07:25:39;99405.66;;;22.33;44.11
84108;BME280;74203;50.730;1.626;2024-03-25T07:27:46;99402.00;;;22.24;44.50
84108;BME280;74203;50.730;1.626;2024-03-25T07:29:54;99411.00;;;22.16;44.35
84108;BME280;74203;50.730;1.626;2024-03-25T07:32:01;99409.47;;;22.10;44.74
84108;BME280;74203;50.730;1.626;2024-03-25T07:34:09;99406.87;;;22.00;44.91
84108;BME280;74203;50.730;1.626;2024-03-25T07:36:16;99407.63;;;21.92;44.88
84108;BME280;74203;50.730;1.626;2024-03-25T07:38:23;99419.91;;;21.80;45.08
84108;BME280;74203;50.730;1.626;2024-03-25T07:40:31;99410.69;;;21.63;45.01
84108;BME280;74203;50.730;1.626;2024-03-25T07:42:38;99404.63;;;21.47;45.54
84108;BME280;74203;50.730;1.626;2024-03-25T07:44:46;99402.00;;;21.28;46.11
84108;BME280;74203;50.730;1.626;2024-03-25T07:46:54;99400.56;;;20.98;44.69
84108;BME280;74203;50.730;1.626;2024-03-25T07:49:01;99390.25;;;20.90;45.23
84108;BME280;74203;50.730;1.626;2024-03-25T07:51:09;99388.66;;;20.89;45.40
84108;BME280;74203;50.730;1.626;2024-03-25T07:53:16;99375.34;;;20.96;45.98
84108;BME280;74203;50.730;1.626;2024-03-25T07:55:24;99380.41;;;20.89;46.98
84108;BME280;74203;50.730;1.626;2024-03-25T07:57:31;99387.59;;;20.85;48.08
84108;BME280;74203;50.730;1.626;2024-03-25T07:59:39;99387.97;;;20.78;48.72
84108;BME280;74203;50.730;1.626;2024-03-25T08:01:46;99378.44;;;20.76;50.16
84108;BME280;74203;50.730;1.626;2024-03-25T08:03:53;99379.62;;;20.69;50.84
84108;BME280;74203;50.730;1.626;2024-03-25T08:06:01;99373.72;;;20.62;51.01
84108;BME280;74203;50.730;1.626;2024-03-25T08:08:08;99367.78;;;20.55;51.06
84108;BME280;74203;50.730;1.626;2024-03-25T08:10:16;99364.91;;;20.47;51.09
84108;BME280;74203;50.730;1.626;2024-03-25T08:12:23;99356.72;;;20.41;50.87
84108;BME280;74203;50.730;1.626;2024-03-25T08:14:31;99361.97;;;20.38;51.46
84108;BME280;74203;50.730;1.626;2024-03-25T08:16:38;99349.25;;;20.28;51.13
84108;BME280;74203;50.730;1.626;2024-03-25T08:18:46;99348.50;;;20.23;50.94
84108;BME280;74203;50.730;1.626;2024-03-25T08:20:53;99356.28;;;20.15;50.60
84108;BME280;74203;50.730;1.626;2024-03-25T08:23:00;99357.97;;;20.11;50.88
84108;BME280;74203;50.730;1.626;2024-03-25T08:25:09;99350.44;;;20.03;50.99
84108;BME280;74203;50.730;1.626;2024-03-25T08:27:16;99340.44;;;19.94;51.10
84108;BME280;74203;50.730;1.626;2024-03-25T08:29:24;99347.09;;;19.87;51.43
84108;BME280;74203;50.730;1.626;2024-03-25T08:31:31;99336.50;;;19.81;51.60
84108;BME280;74203;50.730;1.626;2024-03-25T08:33:38;99336.84;;;19.74;52.01
84108;BME280;74203;50.730;1.626;2024-03-25T08:35:45;99333.34;;;19.69;51.84
84108;BME280;74203;50.730;1.626;2024-03-25T08:37:53;99341.06;;;19.67;52.24
84108;BME280;74203;50.730;1.626;2024-03-25T08:40:00;99348.75;;;19.65;52.16
84108;BME280;74203;50.730;1.626;2024-03-25T08:42:08;99346.06;;;19.59;52.17
84108;BME280;74203;50.730;1.626;2024-03-25T08:44:15;99340.31;;;19.56;52.47
84108;BME280;74203;50.730;1.626;2024-03-25T08:46:23;99337.37;;;19.52;52.59
84108;BME280;74203;50.730;1.626;2024-03-25T08:48:30;99326.47;;;19.47;52.49
84108;BME280;74203;50.730;1.626;2024-03-25T08:50:37;99333.62;;;19.43;52.65
84108;BME280;74203;50.730;1.626;2024-03-25T08:52:44;99321.34;;;19.41;52.51
84108;BME280;74203;50.730;1.626;2024-03-25T08:54:52;99323.31;;;19.35;52.84
84108;BME280;74203;50.730;1.626;2024-03-25T08:56:59;99323.63;;;19.33;53.04
84108;BME280;74203;50.730;1.626;2024-03-25T08:59:06;99326.94;;;19.30;53.13
84108;BME280;74203;50.730;1.626;2024-03-25T09:01:14;99328.34;;;19.28;53.05
84108;BME280;74203;50.730;1.626;2024-03-25T09:03:21;99331.06;;;19.28;53.09
84108;BME280;74203;50.730;1.626;2024-03-25T09:05:28;99327.81;;;19.26;52.90
84108;BME280;74203;50.730;1.626;2024-03-25T09:07:36;99335.22;;;19.25;53.28
84108;BME280;74203;50.730;1.626;2024-03-25T09:09:43;99323.97;;;19.27;53.46
84108;BME280;74203;50.730;1.626;2024-03-25T09:11:50;99321.44;;;19.30;53.25
84108;BME280;74203;50.730;1.626;2024-03-25T09:13:57;99320.63;;;19.30;53.39
84108;BME280;74203;50.730;1.626;2024-03-25T09:16:06;99309.19;;;19.28;53.17
84108;BME280;74203;50.730;1.626;2024-03-25T09:18:13;99315.16;;;19.30;53.42
84108;BME280;74203;50.730;1.626;2024-03-25T09:20:20;99310.81;;;19.29;53.44
84108;BME280;74203;50.730;1.626;2024-03-25T09:22:28;99302.59;;;19.29;52.95
84108;BME280;74203;50.730;1.626;2024-03-25T09:24:35;99305.03;;;19.30;52.91
84108;BME280;74203;50.730;1.626;2024-03-25T09:26:42;99286.41;;;19.32;52.77
84108;BME280;74203;50.730;1.626;2024-03-25T09:28:49;99295.16;;;19.34;52.52
84108;BME280;74203;50.730;1.626;2024-03-25T09:30:57;99294.59;;;19.37;52.40
84108;BME280;74203;50.730;1.626;2024-03-25T09:33:04;99289.31;;;19.41;52.51
84108;BME280;74203;50.730;1.626;2024-03-25T09:35:12;99290.94;;;19.42;52.33
84108;BME280;74203;50.730;1.626;2024-03-25T09:37:20;99284.91;;;19.45;52.30
84108;BME280;74203;50.730;1.626;2024-03-25T09:39:27;99280.44;;;19.49;52.27
84108;BME280;74203;50.730;1.626;2024-03-25T09:41:38;99284.81;;;19.50;52.25
84108;BME280;74203;50.730;1.626;2024-03-25T09:43:52;99276.84;;;19.54;51.97
84108;BME280;74203;50.730;1.626;2024-03-25T09:46:00;99273.81;;;19.55;52.00
84108;BME280;74203;50.730;1.626;2024-03-25T09:48:08;99273.28;;;19.58;51.87
84108;BME280;74203;50.730;1.626;2024-03-25T09:50:17;99260.66;;;19.57;51.56
84108;BME280;74203;50.730;1.626;2024-03-25T09:52:25;99271.03;;;19.60;51.63
84108;BME280;74203;50.730;1.626;2024-03-25T09:54:32;99266.88;;;19.63;51.54
84108;BME280;74203;50.730;1.626;2024-03-25T09:56:41;99262.75;;;19.66;51.66
84108;BME280;74203;50.730;1.626;2024-03-25T09:58:49;99256.47;;;19.65;51.57
84108;BME280;74203;50.730;1.626;2024-03-25T10:00:57;99261.97;;;19.65;51.42
84108;BME280;74203;50.730;1.626;2024-03-25T10:03:05;99251.00;;;19.65;51.23
84108;BME280;74203;50.730;1.626;2024-03-25T10:05:12;99255.06;;;19.68;51.11
84108;BME280;74203;50.730;1.626;2024-03-25T10:07:26;99249.59;;;19.68;51.41
84108;BME280;74203;50.730;1.626;2024-03-25T10:09:34;99246.25;;;19.71;51.29
84108;BME280;74203;50.730;1.626;2024-03-25T10:11:42;99252.84;;;19.70;51.09
84108;BME280;74203;50.730;1.626;2024-03-25T10:13:49;99247.97;;;19.67;51.33
84108;BME280;74203;50.730;1.626;2024-03-25T10:15:57;99252.84;;;19.70;50.92
84108;BME280;74203;50.730;1.626;2024-03-25T10:18:05;99252.84;;;19.70;50.93
84108;BME280;74203;50.730;1.626;2024-03-25T10:20:18;99240.25;;;19.69;50.98
84108;BME280;74203;50.730;1.626;2024-03-25T10:22:25;99239.75;;;19.67;50.98
84108;BME280;74203;50.730;1.626;2024-03-25T10:24:41;99240.88;;;19.66;51.01
84108;BME280;74203;50.730;1.626;2024-03-25T10:26:51;99243.06;;;19.63;50.91
84108;BME280;74203;50.730;1.626;2024-03-25T10:29:06;99239.25;;;19.65;51.20
84108;BME280;74203;50.730;1.626;2024-03-25T10:31:13;99240.31;;;19.63;51.20
84108;BME280;74203;50.730;1.626;2024-03-25T10:33:24;99225.31;;;19.61;51.26
84108;BME280;74203;50.730;1.626;2024-03-25T10:35:33;99234.03;;;19.63;50.95
84108;BME280;74203;50.730;1.626;2024-03-25T10:37:41;99224.44;;;19.66;50.92
84108;BME280;74203;50.730;1.626;2024-03-25T10:39:53;99225.47;;;19.70;51.00
84108;BME280;74203;50.730;1.626;2024-03-25T10:42:01;99221.59;;;19.71;50.76
84108;BME280;74203;50.730;1.626;2024-03-25T10:44:31;99227.91;;;19.71;50.92
84108;BME280;74203;50.730;1.626;2024-03-25T10:47:03;99217.19;;;19.75;50.82
84108;BME280;74203;50.730;1.626;2024-03-25T10:49:43;99209.47;;;19.77;50.56
84108;BME280;74203;50.730;1.626;2024-03-25T10:52:17;99200.69;;;19.80;50.45
84108;BME280;74203;50.730;1.626;2024-03-25T10:54:27;99203.41;;;19.80;50.78
84108;BME280;74203;50.730;1.626;2024-03-25T10:56:36;99201.78;;;19.79;50.67
84108;BME280;74203;50.730;1.626;2024-03-25T10:58:44;99194.91;;;19.81;50.64
84108;BME280;74203;50.730;1.626;2024-03-25T11:00:54;99183.94;;;19.81;50.93
84108;BME280;74203;50.730;1.626;2024-03-25T11:03:02;99174.91;;;19.81;50.83
84108;BME280;74203;50.730;1.626;2024-03-25T11:05:11;99169.94;;;19.83;50.91
84108;BME280;74203;50.730;1.626;2024-03-25T11:07:26;99166.09;;;19.84;51.26
84108;BME280;74203;50.730;1.626;2024-03-25T11:09:34;99176.53;;;19.82;51.23
84108;BME280;74203;50.730;1.626;2024-03-25T11:11:41;99165.00;;;19.85;51.12
84108;BME280;74203;50.730;1.626;2024-03-25T11:13:49;99162.53;;;19.83;51.22
84108;BME280;74203;50.730;1.626;2024-03-25T11:15:56;99161.72;;;19.83;51.34
84108;BME280;74203;50.730;1.626;2024-03-25T11:18:10;99158.19;;;19.82;51.41
84108;BME280;74203;50.730;1.626;2024-03-25T11:20:18;99162.84;;;19.82;51.59